createdAt,value
2018-10-17T00:00:30.916Z,98923.00
2018-10-17T00:03:02.662Z,98929.00
2018-10-17T00:05:35.315Z,98931.00
2018-10-17T00:08:08.119Z,98932.00
2018-10-17T00:13:15.703Z,98932.00
2018-10-17T00:15:48.135Z,98936.00
2018-10-17T00:18:19.999Z,98928.00
2018-10-17T00:20:51.741Z,98928.00
2018-10-17T00:23:23.848Z,98934.00
2018-10-17T00:25:55.759Z,98936.00
2018-10-17T00:28:28.282Z,98940.00
2018-10-17T00:31:00.182Z,98942.00
2018-10-17T00:33:33.065Z,98942.00
2018-10-17T00:36:04.954Z,98944.00
2018-10-17T00:38:37.139Z,98940.00
2018-10-17T00:41:09.740Z,98939.00
2018-10-17T00:46:17.638Z,98939.00
2018-10-17T00:48:49.719Z,98938.00
2018-10-17T00:51:22.060Z,98944.00
2018-10-17T00:53:54.248Z,98946.00
2018-10-17T00:56:26.367Z,98944.00
2018-10-17T00:59:13.065Z,98947.00
2018-10-17T01:01:45.428Z,98948.00
2018-10-17T01:04:17.402Z,98947.00
2018-10-17T01:06:49.682Z,98945.00
2018-10-17T01:09:21.722Z,98950.00
2018-10-17T01:11:54.248Z,98952.00
2018-10-17T01:17:03.188Z,98938.00
2018-10-17T01:19:34.746Z,98930.00
2018-10-17T01:22:07.302Z,98941.00
2018-10-17T01:24:39.744Z,98940.00
2018-10-17T01:27:11.756Z,98930.00
2018-10-17T01:29:43.774Z,98928.00
2018-10-17T01:32:15.626Z,98933.00
2018-10-17T01:34:47.560Z,98926.00
2018-10-17T01:37:19.947Z,98930.00
2018-10-17T01:39:51.931Z,98931.00
2018-10-17T01:42:24.031Z,98934.00
2018-10-17T01:44:56.132Z,98930.00
2018-10-17T01:47:28.514Z,98932.00
2018-10-17T01:50:00.170Z,98926.00
2018-10-17T01:52:33.171Z,98929.00
2018-10-17T01:55:05.449Z,98926.00
2018-10-17T02:00:14.041Z,98927.00
2018-10-17T02:02:46.083Z,98933.00
2018-10-17T02:05:17.834Z,98933.00
2018-10-17T02:07:49.736Z,98930.00
2018-10-17T02:10:21.684Z,98933.00
2018-10-17T02:12:53.710Z,98934.00
2018-10-17T02:15:25.501Z,98935.00
2018-10-17T02:17:57.423Z,98937.00
2018-10-17T02:20:29.992Z,98938.00
2018-10-17T02:23:02.089Z,98934.00
2018-10-17T02:25:34.424Z,98938.00
2018-10-17T02:28:07.286Z,98937.00
2018-10-17T02:30:39.421Z,98936.00
2018-10-17T02:33:11.651Z,98938.00
2018-10-17T02:35:44.120Z,98943.00
2018-10-17T02:38:16.185Z,98954.00
2018-10-17T02:40:47.717Z,98957.00
2018-10-17T02:43:19.546Z,98952.00
2018-10-17T02:45:51.424Z,98945.00
2018-10-17T02:48:23.616Z,98947.00
2018-10-17T02:50:56.473Z,98950.00
2018-10-17T02:53:28.114Z,98946.00
2018-10-17T02:56:00.245Z,98945.00
2018-10-17T03:01:09.233Z,98940.00
2018-10-17T03:03:41.329Z,98944.00
2018-10-17T03:06:13.774Z,98942.00
2018-10-17T03:08:45.850Z,98938.00
2018-10-17T03:11:18.351Z,98929.00
2018-10-17T03:13:50.280Z,98933.00
2018-10-17T03:16:21.809Z,98926.00
2018-10-17T03:18:53.618Z,98928.00
2018-10-17T03:21:25.570Z,98924.00
2018-10-17T03:23:57.404Z,98931.00
2018-10-17T03:26:32.576Z,98933.00
2018-10-17T03:29:04.446Z,98938.00
2018-10-17T03:31:36.353Z,98938.00
2018-10-17T03:34:11.837Z,98941.00
2018-10-17T03:36:43.367Z,98939.00
2018-10-17T03:39:16.755Z,98938.00
2018-10-17T03:41:48.556Z,98942.00
2018-10-17T03:44:20.638Z,98941.00
2018-10-17T03:46:52.337Z,98942.00
2018-10-17T03:49:24.088Z,98947.00
2018-10-17T03:51:56.176Z,98946.00
2018-10-17T03:54:28.003Z,98948.00
2018-10-17T03:57:00.028Z,98952.00
2018-10-17T03:59:31.918Z,98953.00
2018-10-17T04:02:03.889Z,98963.00
2018-10-17T04:04:35.692Z,98954.00
2018-10-17T04:07:07.799Z,98955.00
2018-10-17T04:09:39.426Z,98957.00
2018-10-17T04:12:11.233Z,98953.00
2018-10-17T04:14:42.951Z,98956.00
2018-10-17T04:17:14.819Z,98956.00
2018-10-17T04:19:46.838Z,98956.00
2018-10-17T04:24:56.128Z,98954.00
2018-10-17T04:30:04.978Z,98956.00
2018-10-17T04:35:13.600Z,98968.00
2018-10-17T04:37:46.488Z,98975.00
2018-10-17T04:40:19.482Z,98968.00
2018-10-17T04:42:51.515Z,98969.00
2018-10-17T04:45:23.101Z,98969.00
2018-10-17T04:47:55.386Z,98967.00
2018-10-17T04:50:27.180Z,98963.00
2018-10-17T04:52:59.341Z,98973.00
2018-10-17T04:55:31.228Z,98969.00
2018-10-17T04:58:03.711Z,98973.00
2018-10-17T05:00:35.492Z,98974.00
2018-10-17T05:05:47.812Z,98970.00
2018-10-17T05:08:19.948Z,98972.00
2018-10-17T05:10:51.862Z,98967.00
2018-10-17T05:13:23.797Z,98969.00
2018-10-17T05:15:56.649Z,98975.00
2018-10-17T05:21:04.734Z,98968.00
2018-10-17T05:23:37.062Z,98967.00
2018-10-17T05:26:09.261Z,98966.00
2018-10-17T05:28:41.167Z,98972.00
2018-10-17T05:31:12.979Z,98973.00
2018-10-17T05:33:44.801Z,98971.00
2018-10-17T05:36:17.355Z,98975.00
2018-10-17T05:38:49.139Z,98977.00
2018-10-17T05:41:21.626Z,98976.00
2018-10-17T05:43:53.978Z,98971.00
2018-10-17T05:46:25.680Z,98980.00
2018-10-17T05:48:57.375Z,98982.00
2018-10-17T05:51:29.027Z,98986.00
2018-10-17T05:54:00.441Z,98987.00
2018-10-17T05:56:32.031Z,98990.00
2018-10-17T05:59:03.838Z,98993.00
2018-10-17T06:01:36.485Z,98991.00
2018-10-17T06:06:48.602Z,98998.00
2018-10-17T06:09:21.062Z,98997.00
2018-10-17T06:11:53.042Z,98990.00
2018-10-17T06:14:24.627Z,98989.00
2018-10-17T06:16:56.295Z,98990.00
2018-10-17T06:22:03.897Z,98997.00
2018-10-17T06:24:35.626Z,99000.00
2018-10-17T06:27:07.529Z,98997.00
2018-10-17T06:29:39.910Z,98997.00
2018-10-17T06:32:12.381Z,98995.00
2018-10-17T06:34:43.812Z,98997.00
2018-10-17T06:37:15.640Z,98995.00
2018-10-17T06:39:47.736Z,98997.00
2018-10-17T06:42:19.214Z,98995.00
2018-10-17T06:44:50.978Z,98992.00
2018-10-17T06:47:22.598Z,98996.00
2018-10-17T06:49:54.672Z,99000.00
2018-10-17T06:52:26.269Z,99004.00
2018-10-17T06:54:57.767Z,99004.00
2018-10-17T06:57:29.247Z,99004.00
2018-10-17T07:00:03.651Z,99010.00
2018-10-17T07:02:35.472Z,99019.00
2018-10-17T07:05:08.692Z,99015.00
2018-10-17T07:07:40.516Z,99020.00
2018-10-17T07:10:12.868Z,99012.00
2018-10-17T07:12:44.995Z,99014.00
2018-10-17T07:15:16.481Z,99010.00
2018-10-17T07:17:49.309Z,99005.00
2018-10-17T07:20:21.152Z,98999.00
2018-10-17T07:22:52.829Z,99000.00
2018-10-17T07:25:25.200Z,98995.00
2018-10-17T07:27:56.745Z,98995.00
2018-10-17T07:30:28.485Z,98995.00
2018-10-17T07:32:59.915Z,99000.00
2018-10-17T07:35:31.617Z,99002.00
2018-10-17T07:38:03.009Z,99004.00
2018-10-17T07:43:10.515Z,99000.00
2018-10-17T07:48:19.536Z,98999.00
2018-10-17T07:50:51.867Z,99001.00
2018-10-17T07:53:23.726Z,99001.00
2018-10-17T07:55:56.011Z,98991.00
2018-10-17T07:58:27.868Z,98989.00
2018-10-17T08:01:00.185Z,98986.00
2018-10-17T08:03:31.799Z,98984.00
2018-10-17T08:06:04.180Z,98988.00
2018-10-17T08:08:35.950Z,98994.00
2018-10-17T08:11:08.030Z,98990.00
2018-10-17T08:13:39.832Z,98991.00
2018-10-17T08:16:11.439Z,98987.00
2018-10-17T08:18:42.889Z,98994.00
2018-10-17T08:21:15.180Z,98998.00
2018-10-17T08:23:47.129Z,99000.00
2018-10-17T08:28:54.834Z,98998.00
2018-10-17T08:31:26.980Z,98991.00
2018-10-17T08:33:58.867Z,98997.00
2018-10-17T08:36:30.829Z,98989.00
2018-10-17T08:39:02.863Z,98987.00
2018-10-17T08:41:34.551Z,98995.00
2018-10-17T08:44:06.915Z,99002.00
2018-10-17T08:49:14.702Z,98999.00
2018-10-17T08:51:46.512Z,99005.00
2018-10-17T08:54:18.715Z,99004.00
2018-10-17T08:56:50.225Z,99000.00
2018-10-17T08:59:22.205Z,99000.00
2018-10-17T09:01:53.897Z,99003.00
2018-10-17T09:04:25.643Z,99000.00
2018-10-17T09:06:57.154Z,98998.00
2018-10-17T09:09:28.973Z,98993.00
2018-10-17T09:12:00.998Z,98996.00
2018-10-17T09:14:32.798Z,98990.00
2018-10-17T09:17:04.353Z,99001.00
2018-10-17T09:19:36.098Z,99000.00
2018-10-17T09:22:10.599Z,99002.00
2018-10-17T09:24:42.022Z,99002.00
2018-10-17T09:27:13.528Z,98999.00
2018-10-17T09:29:45.363Z,99005.00
2018-10-17T09:32:17.337Z,99000.00
2018-10-17T09:34:48.868Z,98994.00
2018-10-17T09:37:23.301Z,98984.00
2018-10-17T09:39:57.905Z,98983.00
2018-10-17T09:42:29.657Z,98981.00
2018-10-17T09:45:01.220Z,98979.00
2018-10-17T09:47:33.325Z,98976.00
2018-10-17T09:50:06.432Z,98974.00
2018-10-17T09:52:37.912Z,98978.00
2018-10-17T09:55:09.996Z,98973.00
2018-10-17T09:57:41.487Z,98973.00
2018-10-17T10:00:18.368Z,98967.00
2018-10-17T10:02:51.821Z,98955.00
2018-10-17T10:05:24.517Z,98959.00
2018-10-17T10:07:59.961Z,98955.00
2018-10-17T10:13:07.858Z,98944.00
2018-10-17T10:15:39.972Z,98941.00
2018-10-17T10:18:12.139Z,98943.00
2018-10-17T10:20:43.770Z,98934.00
2018-10-17T10:23:15.548Z,98925.00
2018-10-17T10:25:47.682Z,98924.00
2018-10-17T10:28:19.369Z,98926.00
2018-10-17T10:30:51.388Z,98921.00
2018-10-17T10:33:23.440Z,98921.00
2018-10-17T10:35:55.344Z,98924.00
2018-10-17T10:38:27.109Z,98918.00
2018-10-17T10:40:59.255Z,98921.00
2018-10-17T10:43:30.885Z,98917.00
2018-10-17T10:46:03.010Z,98912.00
2018-10-17T10:48:38.804Z,98906.00
2018-10-17T10:51:10.874Z,98902.00
2018-10-17T10:53:45.877Z,98892.00
2018-10-17T10:56:18.170Z,98890.00
2018-10-17T10:58:59.707Z,98891.00
2018-10-17T11:04:08.960Z,98881.00
2018-10-17T11:06:40.670Z,98882.00
2018-10-17T11:09:12.206Z,98875.00
2018-10-17T11:11:43.903Z,98881.00
2018-10-17T11:14:16.033Z,98870.00
2018-10-17T11:16:47.705Z,98872.00
2018-10-17T11:19:19.199Z,98870.00
2018-10-17T11:21:54.217Z,98866.00
2018-10-17T11:27:03.073Z,98858.00
2018-10-17T11:29:34.882Z,98857.00
2018-10-17T11:32:07.112Z,98855.00
2018-10-17T11:34:38.986Z,98851.00
2018-10-17T11:37:11.355Z,98855.00
2018-10-17T11:39:42.875Z,98861.00
2018-10-17T11:42:14.406Z,98864.00
2018-10-17T11:44:46.143Z,98860.00
2018-10-17T11:47:18.673Z,98857.00
2018-10-17T11:49:50.584Z,98858.00
2018-10-17T11:52:22.995Z,98860.00
2018-10-17T11:54:55.291Z,98857.00
2018-10-17T11:57:27.481Z,98853.00
2018-10-17T11:59:59.323Z,98853.00
2018-10-17T12:02:31.029Z,98851.00
2018-10-17T12:05:03.337Z,98844.00
2018-10-17T12:07:35.439Z,98844.00
2018-10-17T12:10:07.979Z,98845.00
2018-10-17T12:15:16.899Z,98852.00
2018-10-17T12:17:49.442Z,98852.00
2018-10-17T12:20:21.233Z,98849.00
2018-10-17T12:22:52.858Z,98848.00
2018-10-17T12:25:24.750Z,98841.00
2018-10-17T12:27:56.682Z,98843.00
2018-10-17T12:30:28.756Z,98839.00
2018-10-17T12:33:00.568Z,98837.00
2018-10-17T12:35:32.640Z,98839.00
2018-10-17T12:38:04.486Z,98851.00
2018-10-17T12:40:36.489Z,98838.00
2018-10-17T12:45:44.014Z,98831.00
2018-10-17T12:48:15.578Z,98832.00
2018-10-17T12:50:47.082Z,98827.00
2018-10-17T12:53:19.211Z,98827.00
2018-10-17T12:55:51.196Z,98826.00
2018-10-17T12:58:23.290Z,98822.00
2018-10-17T13:00:55.129Z,98824.00
2018-10-17T13:03:33.618Z,98820.00
2018-10-17T13:06:06.589Z,98821.00
2018-10-17T13:08:38.390Z,98820.00
2018-10-17T13:11:10.278Z,98809.00
2018-10-17T13:13:41.743Z,98821.00
2018-10-17T13:16:13.586Z,98820.00
2018-10-17T13:18:45.237Z,98823.00
2018-10-17T13:21:17.788Z,98822.00
2018-10-17T13:23:49.680Z,98822.00
2018-10-17T13:26:21.146Z,98817.00
2018-10-17T13:28:52.676Z,98816.00
2018-10-17T13:31:24.622Z,98816.00
2018-10-17T13:33:57.040Z,98816.00
2018-10-17T13:36:28.873Z,98811.00
2018-10-17T13:39:00.867Z,98806.00
2018-10-17T13:41:32.401Z,98808.00
2018-10-17T13:44:04.130Z,98807.00
2018-10-17T13:46:35.871Z,98804.00
2018-10-17T13:51:43.344Z,98809.00
2018-10-17T13:54:19.561Z,98808.00
2018-10-17T13:56:51.220Z,98805.00
2018-10-17T14:01:59.171Z,98800.00
2018-10-17T14:04:30.590Z,98806.00
2018-10-17T14:07:02.220Z,98814.00
2018-10-17T14:09:34.164Z,98808.00
2018-10-17T14:12:07.603Z,98813.00
2018-10-17T14:14:39.197Z,98816.00
2018-10-17T14:17:10.956Z,98817.00
2018-10-17T14:19:43.653Z,98816.00
2018-10-17T14:22:15.758Z,98813.00
2018-10-17T14:24:47.783Z,98804.00
2018-10-17T14:27:19.821Z,98805.00
2018-10-17T14:29:51.813Z,98803.00
2018-10-17T14:32:23.761Z,98796.00
2018-10-17T14:34:55.803Z,98788.00
2018-10-17T14:37:28.365Z,98788.00
2018-10-17T14:40:00.436Z,98796.00
2018-10-17T14:42:32.336Z,98794.00
2018-10-17T14:45:10.291Z,98808.00
2018-10-17T14:47:46.478Z,98806.00
2018-10-17T14:50:18.610Z,98803.00
2018-10-17T14:52:50.490Z,98802.00
2018-10-17T14:55:22.405Z,98802.00
2018-10-17T14:57:55.479Z,98803.00
2018-10-17T15:00:28.163Z,98803.00
2018-10-17T15:03:00.433Z,98804.00
2018-10-17T15:05:32.590Z,98798.00
2018-10-17T15:08:04.894Z,98797.00
2018-10-17T15:10:36.885Z,98803.00
2018-10-17T15:13:08.952Z,98802.00
2018-10-17T15:15:44.413Z,98801.00
2018-10-17T15:18:16.983Z,98807.00
2018-10-17T15:20:48.873Z,98805.00
2018-10-17T15:23:20.915Z,98804.00
2018-10-17T15:25:53.619Z,98801.00
2018-10-17T15:28:25.558Z,98807.00
2018-10-17T15:33:35.002Z,98809.00
2018-10-17T15:36:07.260Z,98810.00
2018-10-17T15:38:39.413Z,98807.00
2018-10-17T15:41:11.259Z,98813.00
2018-10-17T15:43:43.168Z,98813.00
2018-10-17T15:46:15.266Z,98811.00
2018-10-17T15:48:47.978Z,98817.00
2018-10-17T15:51:19.594Z,98825.00
2018-10-17T15:53:51.853Z,98825.00
2018-10-17T15:56:24.524Z,98823.00
2018-10-17T15:58:56.387Z,98831.00
2018-10-17T16:01:28.399Z,98831.00
2018-10-17T16:04:00.577Z,98830.00
2018-10-17T16:06:32.475Z,98828.00
2018-10-17T16:09:07.042Z,98828.00
2018-10-17T16:11:38.933Z,98834.00
2018-10-17T16:14:10.562Z,98832.00
2018-10-17T16:19:19.112Z,98836.00
2018-10-17T16:21:51.115Z,98840.00
2018-10-17T16:24:22.978Z,98838.00
2018-10-17T16:26:54.735Z,98842.00
2018-10-17T16:29:26.323Z,98839.00
2018-10-17T16:31:58.296Z,98841.00
2018-10-17T16:34:30.555Z,98841.00
2018-10-17T16:37:02.619Z,98843.00
2018-10-17T16:39:38.711Z,98843.00
2018-10-17T16:42:10.571Z,98840.00
2018-10-17T16:47:19.436Z,98842.00
2018-10-17T16:49:51.106Z,98838.00
2018-10-17T16:52:23.192Z,98841.00
2018-10-17T16:54:55.002Z,98842.00
2018-10-17T17:00:02.761Z,98838.00
2018-10-17T17:02:34.300Z,98841.00
2018-10-17T17:05:09.072Z,98840.00
2018-10-17T17:07:41.365Z,98836.00
2018-10-17T17:10:13.964Z,98831.00
2018-10-17T17:12:46.735Z,98840.00
2018-10-17T17:15:18.921Z,98833.00
2018-10-17T17:17:51.071Z,98842.00
2018-10-17T17:20:23.051Z,98837.00
2018-10-17T17:22:54.780Z,98839.00
2018-10-17T17:25:26.820Z,98833.00
2018-10-17T17:27:58.737Z,98837.00
2018-10-17T17:30:30.540Z,98838.00
2018-10-17T17:33:02.731Z,98843.00
2018-10-17T17:35:34.854Z,98841.00
2018-10-17T17:38:06.724Z,98840.00
2018-10-17T17:40:41.113Z,98840.00
2018-10-17T17:43:12.802Z,98839.00
2018-10-17T17:45:44.559Z,98839.00
2018-10-17T17:48:16.341Z,98845.00
2018-10-17T17:50:48.370Z,98841.00
2018-10-17T17:53:20.938Z,98841.00
2018-10-17T17:55:52.938Z,98836.00
2018-10-17T17:58:24.720Z,98835.00
2018-10-17T18:00:57.047Z,98834.00
2018-10-17T18:03:28.583Z,98832.00
2018-10-17T18:06:01.017Z,98833.00
2018-10-17T18:08:32.549Z,98822.00
2018-10-17T18:11:20.632Z,98820.00
2018-10-17T18:13:57.910Z,98827.00
2018-10-17T18:19:06.876Z,98827.00
2018-10-17T18:21:38.787Z,98834.00
2018-10-17T18:24:13.278Z,98840.00
2018-10-17T18:29:22.183Z,98837.00
2018-10-17T18:31:55.093Z,98842.00
2018-10-17T18:34:26.970Z,98836.00
2018-10-17T18:36:58.826Z,98839.00
2018-10-17T18:39:30.540Z,98834.00
2018-10-17T18:42:02.507Z,98837.00
2018-10-17T18:44:34.931Z,98846.00
2018-10-17T18:47:08.022Z,98846.00
2018-10-17T18:49:39.507Z,98850.00
2018-10-17T18:52:11.006Z,98848.00
2018-10-17T18:54:43.132Z,98833.00
2018-10-17T18:59:51.649Z,98842.00
2018-10-17T19:02:23.379Z,98840.00
2018-10-17T19:04:55.243Z,98843.00
2018-10-17T19:07:27.462Z,98842.00
2018-10-17T19:09:59.634Z,98841.00
2018-10-17T19:12:31.488Z,98832.00
2018-10-17T19:15:03.821Z,98838.00
2018-10-17T19:17:35.548Z,98843.00
2018-10-17T19:20:08.071Z,98843.00
2018-10-17T19:22:40.381Z,98838.00
2018-10-17T19:25:13.799Z,98839.00
2018-10-17T19:27:48.046Z,98844.00
2018-10-17T19:30:23.360Z,98840.00
2018-10-17T19:32:56.718Z,98837.00
2018-10-17T19:35:29.581Z,98838.00
2018-10-17T19:38:03.783Z,98836.00
2018-10-17T19:40:37.299Z,98839.00
2018-10-17T19:43:11.718Z,98830.00
2018-10-17T19:45:44.484Z,98830.00
2018-10-17T19:48:16.312Z,98831.00
2018-10-17T19:50:48.583Z,98830.00
2018-10-17T19:53:22.759Z,98823.00
2018-10-17T19:55:55.628Z,98821.00
2018-10-17T19:58:28.012Z,98816.00
2018-10-17T20:01:04.323Z,98811.00
2018-10-17T20:03:39.050Z,98811.00
2018-10-17T20:08:55.896Z,98813.00
2018-10-17T20:11:30.724Z,98816.00
2018-10-17T20:14:09.072Z,98814.00
2018-10-17T20:19:18.866Z,98821.00
2018-10-17T20:22:06.895Z,98823.00
2018-10-17T20:24:40.825Z,98826.00
2018-10-17T20:27:14.329Z,98827.00
2018-10-17T20:32:25.820Z,98823.00
2018-10-17T20:34:59.305Z,98821.00
2018-10-17T20:37:35.545Z,98826.00
2018-10-17T20:40:10.567Z,98825.00
2018-10-17T20:42:43.914Z,98820.00
2018-10-17T20:45:17.752Z,98821.00
2018-10-17T20:47:50.733Z,98821.00
2018-10-17T20:50:23.947Z,98812.00
2018-10-17T20:53:10.896Z,98816.00
2018-10-17T20:55:45.201Z,98817.00
2018-10-17T20:58:16.913Z,98813.00
2018-10-17T21:00:49.407Z,98811.00
2018-10-17T21:03:24.121Z,98809.00
2018-10-17T21:05:57.537Z,98815.00
2018-10-17T21:11:11.164Z,98817.00
2018-10-17T21:13:47.948Z,98810.00
2018-10-17T21:16:21.868Z,98813.00
2018-10-17T21:18:55.059Z,98805.00
2018-10-17T21:24:04.886Z,98806.00
2018-10-17T21:29:15.578Z,98803.00
2018-10-17T21:31:47.144Z,98809.00
2018-10-17T21:34:20.794Z,98811.00
2018-10-17T21:36:54.168Z,98810.00
2018-10-17T21:39:27.759Z,98806.00
2018-10-17T21:42:00.825Z,98807.00
2018-10-17T21:44:33.119Z,98809.00
2018-10-17T21:47:08.753Z,98802.00
2018-10-17T21:49:45.886Z,98804.00
2018-10-17T21:52:18.812Z,98801.00
2018-10-17T21:54:52.233Z,98800.00
2018-10-17T21:57:26.384Z,98806.00
2018-10-17T21:59:58.015Z,98809.00
2018-10-17T22:02:32.213Z,98808.00
2018-10-17T22:07:42.827Z,98805.00
2018-10-17T22:10:16.912Z,98801.00
2018-10-17T22:12:52.585Z,98797.00
2018-10-17T22:15:25.731Z,98795.00
2018-10-17T22:17:58.121Z,98791.00
2018-10-17T22:20:31.287Z,98791.00
2018-10-17T22:25:50.833Z,98803.00
2018-10-17T22:28:23.967Z,98810.00
2018-10-17T22:31:00.788Z,98809.00
2018-10-17T22:33:35.218Z,98812.00
2018-10-17T22:38:45.687Z,98815.00
2018-10-17T22:41:19.069Z,98803.00
2018-10-17T22:43:54.162Z,98801.00
2018-10-17T22:46:27.954Z,98799.00
2018-10-17T22:49:01.599Z,98804.00
2018-10-17T22:54:10.998Z,98795.00
2018-10-17T22:56:42.617Z,98790.00
2018-10-17T22:59:16.222Z,98790.00
2018-10-17T23:01:49.981Z,98787.00
2018-10-17T23:04:22.957Z,98799.00
2018-10-17T23:06:56.987Z,98798.00
2018-10-17T23:09:31.113Z,98798.00
2018-10-17T23:12:04.336Z,98789.00
2018-10-17T23:14:41.616Z,98782.00
2018-10-17T23:17:13.956Z,98776.00
2018-10-17T23:19:48.317Z,98777.00
2018-10-17T23:22:22.219Z,98785.00
2018-10-17T23:24:56.475Z,98782.00
2018-10-17T23:27:39.283Z,98785.00
2018-10-17T23:30:12.633Z,98773.00
2018-10-17T23:32:45.559Z,98770.00
2018-10-17T23:35:17.966Z,98767.00
2018-10-17T23:37:52.627Z,98764.00
2018-10-17T23:40:24.669Z,98769.00
2018-10-17T23:43:01.174Z,98771.00
2018-10-17T23:49:33.971Z,98765.00
2018-10-17T23:52:07.294Z,98761.00
2018-10-17T23:54:39.168Z,98755.00
2018-10-17T23:57:10.515Z,98763.00
2018-10-17T23:59:41.872Z,98760.00
